EDT,Max TemperatureF,Mean TemperatureF,Min TemperatureF,Max Dew PointF,MeanDew PointF,Min DewpointF,Max Humidity, Mean Humidity, Min Humidity, Max Sea Level PressureIn, Mean Sea Level PressureIn, Min Sea Level PressureIn, Max VisibilityMiles, Mean VisibilityMiles, Min VisibilityMiles, Max Wind SpeedMPH, Mean Wind SpeedMPH, Max Gust SpeedMPH,PrecipitationIn, CloudCover, Events, WindDirDegrees
2010-10-1,61,54,46,54,48,42,93,73,53,29.97,29.88,29.79,10,10,10,21,10,25,0.00,6,,307
2010-10-2,58,50,41,45,42,40,96,76,55,30.14,30.05,29.96,10,10,10,13,4,17,0.02,5,Rain,316
2010-10-3,54,51,47,46,42,40,93,78,63,30.31,30.23,30.13,10,10,9,23,12,28,0.09,7,Rain,59
2010-10-4,51,49,47,48,44,40,93,82,71,30.31,30.26,30.21,10,8,2,16,5,18,0.30,8,Rain,342
2010-10-5,53,51,48,50,48,46,96,90,83,30.20,30.12,30.06,10,6,1,21,10,26,0.64,8,Rain,9
2010-10-6,61,56,51,54,52,48,100,86,72,30.04,29.87,29.73,10,9,2,16,5,20,0.54,8,Rain,23
2010-10-7,67,57,47,52,46,38,100,67,34,29.95,29.78,29.67,10,10,4,29,12,39,0.18,3,Rain,280
2010-10-8,69,56,43,48,43,30,92,61,30,29.97,29.91,29.85,10,10,10,29,13,36,0.00,1,,253
2010-10-9,60,49,38,51,40,28,92,64,35,30.10,30.04,29.87,10,10,10,18,7,22,0.00,1,,2
2010-10-10,70,53,36,53,41,33,93,67,40,30.06,29.89,29.76,10,10,6,15,6,18,0.00,1,,254
2010-10-11,61,54,46,54,49,46,100,82,64,29.86,29.83,29.79,10,4,0,12,3,14,0.16,5,Fog-Rain,315
2010-10-12,54,46,37,49,43,34,100,75,50,30.03,29.89,29.80,10,5,0,17,5,21,0.00,6,Fog,320
2010-10-13,62,48,34,46,37,30,92,62,32,30.11,30.04,29.98,10,10,10,10,4,13,T,4,Rain,215
2010-10-14,52,49,45,49,45,41,93,85,77,29.96,29.81,29.74,10,9,2,16,6,21,0.10,8,Rain,226
2010-10-15,52,48,43,45,42,37,96,78,59,29.84,29.71,29.66,10,8,4,23,12,31,0.38,8,Rain,311
2010-10-16,57,50,42,41,37,30,89,64,38,30.00,29.95,29.85,10,10,10,21,10,26,0.00,2,,298
2010-10-17,60,51,41,49,39,33,93,65,36,29.96,29.90,29.87,10,10,10,22,10,29,0.00,4,Rain,268
2010-10-18,53,45,36,39,33,27,85,62,38,30.01,29.97,29.94,10,10,10,20,7,26,0.00,5,,274
2010-10-19,56,48,39,41,36,33,93,70,46,29.93,29.89,29.85,10,10,10,18,7,23,T,6,,236
2010-10-20,62,50,38,38,34,30,85,59,32,29.89,29.76,29.52,10,10,10,26,13,33,T,4,,217
2010-10-21,52,45,37,47,39,31,93,73,53,29.86,29.64,29.49,10,10,7,25,10,30,0.25,8,Rain,289
2010-10-22,47,42,36,35,32,26,85,65,45,30.09,30.01,29.87,10,10,8,24,10,32,0.03,7,Rain-Snow,267
2010-10-23,62,52,41,52,43,35,96,73,49,30.12,30.10,30.06,10,8,2,18,5,23,0.15,8,Rain,226
2010-10-24,67,58,49,53,50,48,96,74,52,30.11,29.99,29.86,10,7,2,13,2,15,T,7,Rain,128
2010-10-25,67,60,53,58,52,47,93,73,52,29.85,29.75,29.70,10,9,5,16,5,22,0.11,7,Rain,194
2010-10-26,74,64,54,61,57,53,93,75,57,29.76,29.66,29.54,10,9,2,22,10,30,0.21,7,Rain,178
2010-10-27,69,61,52,56,42,32,86,56,25,29.83,29.76,29.67,10,10,10,30,12,36,T,2,Rain,212
2010-10-28,59,53,46,46,40,33,80,62,43,29.98,29.84,29.69,10,10,10,36,14,45,0.01,6,Rain,239
2010-10-29,47,42,36,40,35,30,86,70,53,30.12,30.06,29.97,10,10,5,25,11,35,0.09,7,Rain,280
2010-10-30,57,47,36,36,30,21,85,56,26,30.07,29.84,29.64,10,10,10,26,11,33,0.00,7,,227
2010-10-31,48,41,34,39,31,21,79,61,43,30.28,30.00,29.70,10,9,2,20,10,26,0.04,8,Rain-Snow,330